sensor_id;sensor_type;location;lat;lon;timestamp;temperature;humidity
2024;DHT22;1016;48.770;9.154;2023-06-14T00:00:17;20.50;51.90
2024;DHT22;1016;48.770;9.154;2023-06-14T00:02:43;20.60;51.50
2024;DHT22;1016;48.770;9.154;2023-06-14T00:05:08;20.60;51.40
2024;DHT22;1016;48.770;9.154;2023-06-14T00:07:39;20.60;51.30
2024;DHT22;1016;48.770;9.154;2023-06-14T00:10:07;20.60;51.60
2024;DHT22;1016;48.770;9.154;2023-06-14T00:12:33;20.50;51.60
2024;DHT22;1016;48.770;9.154;2023-06-14T00:14:59;20.50;51.90
2024;DHT22;1016;48.770;9.154;2023-06-14T00:17:27;20.50;52.00
2024;DHT22;1016;48.770;9.154;2023-06-14T00:19:58;20.50;52.10
2024;DHT22;1016;48.770;9.154;2023-06-14T00:22:24;20.40;52.20
2024;DHT22;1016;48.770;9.154;2023-06-14T00:24:51;20.40;52.40
2024;DHT22;1016;48.770;9.154;2023-06-14T00:27:16;20.30;52.60
2024;DHT22;1016;48.770;9.154;2023-06-14T00:29:42;20.30;52.80
2024;DHT22;1016;48.770;9.154;2023-06-14T00:32:07;20.30;53.10
2024;DHT22;1016;48.770;9.154;2023-06-14T00:34:33;20.20;53.10
2024;DHT22;1016;48.770;9.154;2023-06-14T00:36:59;20.20;53.40
2024;DHT22;1016;48.770;9.154;2023-06-14T00:41:51;20.10;53.20
2024;DHT22;1016;48.770;9.154;2023-06-14T00:44:17;20.10;53.80
2024;DHT22;1016;48.770;9.154;2023-06-14T00:46:44;20.00;53.80
2024;DHT22;1016;48.770;9.154;2023-06-14T00:49:10;20.00;54.00
2024;DHT22;1016;48.770;9.154;2023-06-14T00:51:37;20.00;54.80
2024;DHT22;1016;48.770;9.154;2023-06-14T00:54:03;19.90;54.20
2024;DHT22;1016;48.770;9.154;2023-06-14T00:56:29;19.90;54.40
2024;DHT22;1016;48.770;9.154;2023-06-14T00:58:56;19.90;54.30
2024;DHT22;1016;48.770;9.154;2023-06-14T01:01:21;19.80;54.20
2024;DHT22;1016;48.770;9.154;2023-06-14T01:03:47;19.80;54.30
2024;DHT22;1016;48.770;9.154;2023-06-14T01:06:29;19.80;54.20
2024;DHT22;1016;48.770;9.154;2023-06-14T01:11:58;19.80;54.20
2024;DHT22;1016;48.770;9.154;2023-06-14T01:14:25;19.80;54.40
2024;DHT22;1016;48.770;9.154;2023-06-14T01:16:53;19.80;54.50
2024;DHT22;1016;48.770;9.154;2023-06-14T01:19:19;19.80;54.70
2024;DHT22;1016;48.770;9.154;2023-06-14T01:21:48;19.70;54.80
2024;DHT22;1016;48.770;9.154;2023-06-14T01:24:16;19.70;54.90
2024;DHT22;1016;48.770;9.154;2023-06-14T01:26:45;19.70;55.10
2024;DHT22;1016;48.770;9.154;2023-06-14T01:29:11;19.70;55.20
2024;DHT22;1016;48.770;9.154;2023-06-14T01:31:37;19.70;55.30
2024;DHT22;1016;48.770;9.154;2023-06-14T01:34:07;19.60;55.40
2024;DHT22;1016;48.770;9.154;2023-06-14T01:36:33;19.60;55.60
2024;DHT22;1016;48.770;9.154;2023-06-14T01:39:01;19.60;55.60
2024;DHT22;1016;48.770;9.154;2023-06-14T01:43:53;19.60;54.90
2024;DHT22;1016;48.770;9.154;2023-06-14T01:46:20;19.50;55.30
2024;DHT22;1016;48.770;9.154;2023-06-14T01:48:46;19.50;55.40
2024;DHT22;1016;48.770;9.154;2023-06-14T01:51:11;19.50;55.90
2024;DHT22;1016;48.770;9.154;2023-06-14T01:53:37;19.40;55.40
2024;DHT22;1016;48.770;9.154;2023-06-14T01:56:02;19.50;55.60
2024;DHT22;1016;48.770;9.154;2023-06-14T01:58:28;19.60;55.60
2024;DHT22;1016;48.770;9.154;2023-06-14T02:00:54;19.40;55.50
2024;DHT22;1016;48.770;9.154;2023-06-14T02:03:21;19.40;55.70
2024;DHT22;1016;48.770;9.154;2023-06-14T02:05:46;19.40;55.80
2024;DHT22;1016;48.770;9.154;2023-06-14T02:08:12;19.40;55.90
2024;DHT22;1016;48.770;9.154;2023-06-14T02:10:51;19.40;56.00
2024;DHT22;1016;48.770;9.154;2023-06-14T02:13:17;19.40;55.80
2024;DHT22;1016;48.770;9.154;2023-06-14T02:15:42;19.40;55.90
2024;DHT22;1016;48.770;9.154;2023-06-14T02:18:09;19.40;56.00
2024;DHT22;1016;48.770;9.154;2023-06-14T02:20:35;19.30;55.90
2024;DHT22;1016;48.770;9.154;2023-06-14T02:23:01;19.30;55.80
2024;DHT22;1016;48.770;9.154;2023-06-14T02:25:27;19.30;55.90
2024;DHT22;1016;48.770;9.154;2023-06-14T02:27:53;19.30;56.10
2024;DHT22;1016;48.770;9.154;2023-06-14T02:30:20;19.20;56.10
2024;DHT22;1016;48.770;9.154;2023-06-14T02:32:46;19.20;56.20
2024;DHT22;1016;48.770;9.154;2023-06-14T02:35:14;19.10;56.30
2024;DHT22;1016;48.770;9.154;2023-06-14T02:37:40;19.10;56.40
2024;DHT22;1016;48.770;9.154;2023-06-14T02:40:06;19.10;56.50
2024;DHT22;1016;48.770;9.154;2023-06-14T02:42:31;19.10;56.60
2024;DHT22;1016;48.770;9.154;2023-06-14T02:44:57;19.10;56.60
2024;DHT22;1016;48.770;9.154;2023-06-14T02:47:23;19.10;56.80
2024;DHT22;1016;48.770;9.154;2023-06-14T02:49:49;19.10;56.80
2024;DHT22;1016;48.770;9.154;2023-06-14T02:52:15;19.00;56.70
2024;DHT22;1016;48.770;9.154;2023-06-14T02:54:41;19.00;56.80
2024;DHT22;1016;48.770;9.154;2023-06-14T02:57:07;19.00;56.90
2024;DHT22;1016;48.770;9.154;2023-06-14T02:59:34;19.00;57.00
2024;DHT22;1016;48.770;9.154;2023-06-14T03:02:00;19.00;57.10
2024;DHT22;1016;48.770;9.154;2023-06-14T03:04:25;19.00;57.10
2024;DHT22;1016;48.770;9.154;2023-06-14T03:06:52;18.90;57.10
2024;DHT22;1016;48.770;9.154;2023-06-14T03:09:19;18.90;57.10
2024;DHT22;1016;48.770;9.154;2023-06-14T03:11:44;18.90;57.20
2024;DHT22;1016;48.770;9.154;2023-06-14T03:14:10;18.80;57.20
2024;DHT22;1016;48.770;9.154;2023-06-14T03:16:36;18.80;57.20
2024;DHT22;1016;48.770;9.154;2023-06-14T03:19:02;18.80;57.30
2024;DHT22;1016;48.770;9.154;2023-06-14T03:21:28;18.80;57.40
2024;DHT22;1016;48.770;9.154;2023-06-14T03:23:54;18.80;57.30
2024;DHT22;1016;48.770;9.154;2023-06-14T03:26:19;18.80;57.40
2024;DHT22;1016;48.770;9.154;2023-06-14T03:28:45;18.70;57.40
2024;DHT22;1016;48.770;9.154;2023-06-14T03:31:12;18.70;57.40
2024;DHT22;1016;48.770;9.154;2023-06-14T03:33:38;18.70;57.40
2024;DHT22;1016;48.770;9.154;2023-06-14T03:36:04;18.70;57.60
2024;DHT22;1016;48.770;9.154;2023-06-14T03:38:30;18.80;57.60
2024;DHT22;1016;48.770;9.154;2023-06-14T03:40:55;18.80;57.50
2024;DHT22;1016;48.770;9.154;2023-06-14T03:43:21;18.70;57.60
2024;DHT22;1016;48.770;9.154;2023-06-14T03:45:46;18.70;57.60
2024;DHT22;1016;48.770;9.154;2023-06-14T03:48:12;18.70;57.80
2024;DHT22;1016;48.770;9.154;2023-06-14T03:50:37;18.70;58.00
2024;DHT22;1016;48.770;9.154;2023-06-14T03:53:04;18.70;58.00
2024;DHT22;1016;48.770;9.154;2023-06-14T03:55:30;18.70;58.20
2024;DHT22;1016;48.770;9.154;2023-06-14T03:57:56;18.70;58.30
2024;DHT22;1016;48.770;9.154;2023-06-14T04:00:22;18.70;58.40
2024;DHT22;1016;48.770;9.154;2023-06-14T04:02:48;18.70;58.40
2024;DHT22;1016;48.770;9.154;2023-06-14T04:05:14;18.80;58.50
2024;DHT22;1016;48.770;9.154;2023-06-14T04:07:42;18.80;58.50
2024;DHT22;1016;48.770;9.154;2023-06-14T04:10:11;18.80;58.50
2024;DHT22;1016;48.770;9.154;2023-06-14T04:12:38;18.90;58.50
2024;DHT22;1016;48.770;9.154;2023-06-14T04:15:03;18.90;58.70
2024;DHT22;1016;48.770;9.154;2023-06-14T04:17:31;18.80;58.90
2024;DHT22;1016;48.770;9.154;2023-06-14T04:19:58;18.80;58.90
2024;DHT22;1016;48.770;9.154;2023-06-14T04:22:25;18.90;58.80
2024;DHT22;1016;48.770;9.154;2023-06-14T04:24:56;18.90;58.80
2024;DHT22;1016;48.770;9.154;2023-06-14T04:27:26;19.00;58.80
2024;DHT22;1016;48.770;9.154;2023-06-14T04:29:53;19.10;58.50
2024;DHT22;1016;48.770;9.154;2023-06-14T04:32:24;19.10;58.50
2024;DHT22;1016;48.770;9.154;2023-06-14T04:34:54;19.10;58.10
2024;DHT22;1016;48.770;9.154;2023-06-14T04:37:21;19.20;58.00
2024;DHT22;1016;48.770;9.154;2023-06-14T04:39:47;19.20;58.00
2024;DHT22;1016;48.770;9.154;2023-06-14T04:42:13;19.20;57.90
2024;DHT22;1016;48.770;9.154;2023-06-14T04:44:41;19.30;57.30
2024;DHT22;1016;48.770;9.154;2023-06-14T04:47:07;19.30;57.00
2024;DHT22;1016;48.770;9.154;2023-06-14T04:49:32;19.40;56.90
2024;DHT22;1016;48.770;9.154;2023-06-14T04:51:59;19.50;57.50
2024;DHT22;1016;48.770;9.154;2023-06-14T04:54:27;19.50;57.30
2024;DHT22;1016;48.770;9.154;2023-06-14T04:56:53;19.50;57.40
2024;DHT22;1016;48.770;9.154;2023-06-14T04:59:20;19.60;57.30
2024;DHT22;1016;48.770;9.154;2023-06-14T05:43:25;18.20;59.20
2024;DHT22;1016;48.770;9.154;2023-06-14T05:45:50;19.10;60.10
2024;DHT22;1016;48.770;9.154;2023-06-14T05:48:16;19.20;59.80
2024;DHT22;1016;48.770;9.154;2023-06-14T05:50:41;19.40;59.70
2024;DHT22;1016;48.770;9.154;2023-06-14T05:53:07;19.40;59.40
2024;DHT22;1016;48.770;9.154;2023-06-14T05:55:32;19.50;59.10
2024;DHT22;1016;48.770;9.154;2023-06-14T05:57:58;19.60;59.10
2024;DHT22;1016;48.770;9.154;2023-06-14T06:00:23;19.60;58.90
2024;DHT22;1016;48.770;9.154;2023-06-14T06:02:49;19.70;58.40
2024;DHT22;1016;48.770;9.154;2023-06-14T06:05:15;19.70;58.40
2024;DHT22;1016;48.770;9.154;2023-06-14T06:07:41;19.70;58.00
2024;DHT22;1016;48.770;9.154;2023-06-14T06:10:07;19.70;58.10
2024;DHT22;1016;48.770;9.154;2023-06-14T06:12:33;19.80;58.10
2024;DHT22;1016;48.770;9.154;2023-06-14T06:14:59;19.90;58.00
2024;DHT22;1016;48.770;9.154;2023-06-14T06:17:26;20.00;57.90
2024;DHT22;1016;48.770;9.154;2023-06-14T06:19:51;20.00;57.60
2024;DHT22;1016;48.770;9.154;2023-06-14T06:22:17;20.10;57.70
2024;DHT22;1016;48.770;9.154;2023-06-14T06:24:43;20.20;57.70
2024;DHT22;1016;48.770;9.154;2023-06-14T06:27:08;20.20;57.60
2024;DHT22;1016;48.770;9.154;2023-06-14T06:29:35;20.20;57.60
2024;DHT22;1016;48.770;9.154;2023-06-14T06:32:01;20.30;57.70
2024;DHT22;1016;48.770;9.154;2023-06-14T06:34:27;20.30;57.60
2024;DHT22;1016;48.770;9.154;2023-06-14T06:36:53;20.30;57.30
2024;DHT22;1016;48.770;9.154;2023-06-14T06:39:18;20.30;57.20
2024;DHT22;1016;48.770;9.154;2023-06-14T06:41:44;20.30;57.30
2024;DHT22;1016;48.770;9.154;2023-06-14T06:44:09;20.30;57.40
2024;DHT22;1016;48.770;9.154;2023-06-14T06:46:36;20.30;57.60
2024;DHT22;1016;48.770;9.154;2023-06-14T06:49:06;20.40;57.80
2024;DHT22;1016;48.770;9.154;2023-06-14T06:51:32;20.50;57.90
2024;DHT22;1016;48.770;9.154;2023-06-14T06:53:58;20.50;57.90
2024;DHT22;1016;48.770;9.154;2023-06-14T06:56:24;20.50;58.00
2024;DHT22;1016;48.770;9.154;2023-06-14T06:58:50;20.60;58.10
2024;DHT22;1016;48.770;9.154;2023-06-14T07:01:16;20.60;57.80
2024;DHT22;1016;48.770;9.154;2023-06-14T07:03:45;20.70;57.60
2024;DHT22;1016;48.770;9.154;2023-06-14T07:06:11;20.80;57.80
2024;DHT22;1016;48.770;9.154;2023-06-14T07:08:36;20.80;57.60
2024;DHT22;1016;48.770;9.154;2023-06-14T07:11:04;20.90;57.70
2024;DHT22;1016;48.770;9.154;2023-06-14T07:13:30;20.80;57.60
2024;DHT22;1016;48.770;9.154;2023-06-14T07:15:59;21.00;57.40
2024;DHT22;1016;48.770;9.154;2023-06-14T07:18:28;21.00;57.60
2024;DHT22;1016;48.770;9.154;2023-06-14T07:20:54;21.10;57.70
2024;DHT22;1016;48.770;9.154;2023-06-14T07:23:23;21.20;57.50
2024;DHT22;1016;48.770;9.154;2023-06-14T07:25:48;21.00;57.30
2024;DHT22;1016;48.770;9.154;2023-06-14T07:28:15;21.10;57.10
2024;DHT22;1016;48.770;9.154;2023-06-14T07:30:41;21.00;56.60
2024;DHT22;1016;48.770;9.154;2023-06-14T07:33:06;21.20;57.00
2024;DHT22;1016;48.770;9.154;2023-06-14T07:35:33;21.10;56.70
2024;DHT22;1016;48.770;9.154;2023-06-14T07:37:59;21.20;57.00
2024;DHT22;1016;48.770;9.154;2023-06-14T07:40:24;21.20;57.10
2024;DHT22;1016;48.770;9.154;2023-06-14T07:42:50;21.30;57.30
2024;DHT22;1016;48.770;9.154;2023-06-14T07:45:16;21.30;57.20
2024;DHT22;1016;48.770;9.154;2023-06-14T07:47:42;21.40;57.20
2024;DHT22;1016;48.770;9.154;2023-06-14T07:50:07;21.40;56.60
2024;DHT22;1016;48.770;9.154;2023-06-14T07:52:33;21.40;56.20
2024;DHT22;1016;48.770;9.154;2023-06-14T07:54:59;21.40;55.70
2024;DHT22;1016;48.770;9.154;2023-06-14T07:57:25;21.40;55.60
2024;DHT22;1016;48.770;9.154;2023-06-14T07:59:51;21.50;55.90
2024;DHT22;1016;48.770;9.154;2023-06-14T08:02:16;21.50;55.90
2024;DHT22;1016;48.770;9.154;2023-06-14T08:04:42;21.50;55.70
2024;DHT22;1016;48.770;9.154;2023-06-14T08:07:08;21.60;55.90
2024;DHT22;1016;48.770;9.154;2023-06-14T08:09:34;21.60;55.90
2024;DHT22;1016;48.770;9.154;2023-06-14T08:12:00;21.70;56.30
2024;DHT22;1016;48.770;9.154;2023-06-14T08:14:26;21.80;56.60
2024;DHT22;1016;48.770;9.154;2023-06-14T08:16:51;21.80;56.50
2024;DHT22;1016;48.770;9.154;2023-06-14T08:19:17;21.80;56.00
2024;DHT22;1016;48.770;9.154;2023-06-14T08:21:43;21.80;55.80
2024;DHT22;1016;48.770;9.154;2023-06-14T08:24:10;21.90;55.80
2024;DHT22;1016;48.770;9.154;2023-06-14T08:26:38;21.90;56.10
2024;DHT22;1016;48.770;9.154;2023-06-14T08:29:03;21.90;56.10
2024;DHT22;1016;48.770;9.154;2023-06-14T08:31:29;21.90;56.40
2024;DHT22;1016;48.770;9.154;2023-06-14T08:33:54;22.00;56.40
2024;DHT22;1016;48.770;9.154;2023-06-14T08:36:20;22.00;56.70
2024;DHT22;1016;48.770;9.154;2023-06-14T08:38:45;22.00;57.00
2024;DHT22;1016;48.770;9.154;2023-06-14T08:41:12;22.10;56.90
2024;DHT22;1016;48.770;9.154;2023-06-14T08:43:39;22.30;57.20
2024;DHT22;1016;48.770;9.154;2023-06-14T08:46:06;22.20;57.40
2024;DHT22;1016;48.770;9.154;2023-06-14T08:48:34;22.20;57.60
2024;DHT22;1016;48.770;9.154;2023-06-14T08:51:00;22.30;57.80
2024;DHT22;1016;48.770;9.154;2023-06-14T08:53:32;22.50;57.70
2024;DHT22;1016;48.770;9.154;2023-06-14T08:56:00;22.30;57.40
2024;DHT22;1016;48.770;9.154;2023-06-14T08:58:28;22.40;57.70
2024;DHT22;1016;48.770;9.154;2023-06-14T09:00:55;22.50;57.90
2024;DHT22;1016;48.770;9.154;2023-06-14T09:03:21;22.60;57.00
2024;DHT22;1016;48.770;9.154;2023-06-14T09:05:48;22.60;56.70
2024;DHT22;1016;48.770;9.154;2023-06-14T09:08:15;22.60;56.70
2024;DHT22;1016;48.770;9.154;2023-06-14T09:10:41;22.50;57.00
2024;DHT22;1016;48.770;9.154;2023-06-14T09:13:07;22.60;57.20
2024;DHT22;1016;48.770;9.154;2023-06-14T09:15:32;22.60;57.30
2024;DHT22;1016;48.770;9.154;2023-06-14T09:18:01;22.80;57.30
2024;DHT22;1016;48.770;9.154;2023-06-14T09:20:28;22.80;57.40
2024;DHT22;1016;48.770;9.154;2023-06-14T09:22:54;22.90;57.20
2024;DHT22;1016;48.770;9.154;2023-06-14T09:25:20;22.90;57.00
2024;DHT22;1016;48.770;9.154;2023-06-14T09:27:47;22.90;57.10
2024;DHT22;1016;48.770;9.154;2023-06-14T09:30:12;23.00;57.30
2024;DHT22;1016;48.770;9.154;2023-06-14T09:32:41;23.00;57.10
2024;DHT22;1016;48.770;9.154;2023-06-14T09:35:07;23.00;57.00
2024;DHT22;1016;48.770;9.154;2023-06-14T09:37:34;23.10;56.20
2024;DHT22;1016;48.770;9.154;2023-06-14T09:40:00;23.10;55.90
2024;DHT22;1016;48.770;9.154;2023-06-14T09:42:26;23.20;56.10
2024;DHT22;1016;48.770;9.154;2023-06-14T09:44:54;23.20;56.30
2024;DHT22;1016;48.770;9.154;2023-06-14T09:47:20;23.20;56.40
2024;DHT22;1016;48.770;9.154;2023-06-14T09:49:47;23.20;56.60
2024;DHT22;1016;48.770;9.154;2023-06-14T09:52:18;23.30;56.80
2024;DHT22;1016;48.770;9.154;2023-06-14T09:54:45;23.30;56.50
2024;DHT22;1016;48.770;9.154;2023-06-14T09:57:14;23.30;56.50
2024;DHT22;1016;48.770;9.154;2023-06-14T09:59:45;23.40;56.20
2024;DHT22;1016;48.770;9.154;2023-06-14T10:04:56;23.50;55.00
2024;DHT22;1016;48.770;9.154;2023-06-14T10:07:26;23.50;55.10
2024;DHT22;1016;48.770;9.154;2023-06-14T10:09:55;23.50;55.20
2024;DHT22;1016;48.770;9.154;2023-06-14T10:12:21;23.60;54.90
2024;DHT22;1016;48.770;9.154;2023-06-14T10:14:51;23.60;54.70
2024;DHT22;1016;48.770;9.154;2023-06-14T10:17:40;23.70;54.40
2024;DHT22;1016;48.770;9.154;2023-06-14T10:20:28;23.70;54.40
2024;DHT22;1016;48.770;9.154;2023-06-14T10:23:03;23.70;54.60
2024;DHT22;1016;48.770;9.154;2023-06-14T10:25:33;23.80;52.50
2024;DHT22;1016;48.770;9.154;2023-06-14T10:28:17;23.80;51.80
2024;DHT22;1016;48.770;9.154;2023-06-14T10:31:06;23.90;53.00
2024;DHT22;1016;48.770;9.154;2023-06-14T10:33:33;23.90;53.60
2024;DHT22;1016;48.770;9.154;2023-06-14T10:36:30;23.80;53.50
2024;DHT22;1016;48.770;9.154;2023-06-14T10:38:58;23.80;53.50
2024;DHT22;1016;48.770;9.154;2023-06-14T10:41:26;23.60;53.30
2024;DHT22;1016;48.770;9.154;2023-06-14T10:43:52;23.70;53.00
2024;DHT22;1016;48.770;9.154;2023-06-14T10:46:19;23.70;53.30
2024;DHT22;1016;48.770;9.154;2023-06-14T10:48:48;23.80;53.60
2024;DHT22;1016;48.770;9.154;2023-06-14T10:51:20;23.80;53.90
2024;DHT22;1016;48.770;9.154;2023-06-14T10:53:49;23.80;53.60
2024;DHT22;1016;48.770;9.154;2023-06-14T10:56:23;23.90;53.50
2024;DHT22;1016;48.770;9.154;2023-06-14T10:58:50;24.00;53.30
2024;DHT22;1016;48.770;9.154;2023-06-14T11:01:36;24.10;52.70
2024;DHT22;1016;48.770;9.154;2023-06-14T11:04:11;24.10;52.70
2024;DHT22;1016;48.770;9.154;2023-06-14T11:07:02;24.20;52.20
2024;DHT22;1016;48.770;9.154;2023-06-14T11:09:38;24.20;51.70
2024;DHT22;1016;48.770;9.154;2023-06-14T11:12:10;24.30;50.50
2024;DHT22;1016;48.770;9.154;2023-06-14T11:14:37;24.20;50.80
2024;DHT22;1016;48.770;9.154;2023-06-14T11:17:03;24.20;51.20
2024;DHT22;1016;48.770;9.154;2023-06-14T11:19:29;24.20;51.20
2024;DHT22;1016;48.770;9.154;2023-06-14T11:21:56;24.20;51.50
2024;DHT22;1016;48.770;9.154;2023-06-14T11:24:22;24.20;51.30
2024;DHT22;1016;48.770;9.154;2023-06-14T11:26:47;24.10;51.30
2024;DHT22;1016;48.770;9.154;2023-06-14T11:29:16;24.10;51.40
2024;DHT22;1016;48.770;9.154;2023-06-14T11:31:44;24.10;50.80
2024;DHT22;1016;48.770;9.154;2023-06-14T11:34:13;24.20;49.70
2024;DHT22;1016;48.770;9.154;2023-06-14T11:36:39;24.20;49.60
2024;DHT22;1016;48.770;9.154;2023-06-14T11:39:06;24.30;49.50
2024;DHT22;1016;48.770;9.154;2023-06-14T11:41:40;24.30;49.20
2024;DHT22;1016;48.770;9.154;2023-06-14T11:44:06;24.30;49.30
2024;DHT22;1016;48.770;9.154;2023-06-14T11:46:32;24.30;49.40
2024;DHT22;1016;48.770;9.154;2023-06-14T11:48:58;24.40;49.70
2024;DHT22;1016;48.770;9.154;2023-06-14T11:51:24;24.40;49.70
2024;DHT22;1016;48.770;9.154;2023-06-14T11:53:50;24.40;49.90
2024;DHT22;1016;48.770;9.154;2023-06-14T11:56:16;24.40;50.00
2024;DHT22;1016;48.770;9.154;2023-06-14T11:58:43;24.50;49.90
2024;DHT22;1016;48.770;9.154;2023-06-14T12:01:09;24.50;50.00
2024;DHT22;1016;48.770;9.154;2023-06-14T12:03:34;24.50;49.50
2024;DHT22;1016;48.770;9.154;2023-06-14T12:06:07;24.40;49.50
2024;DHT22;1016;48.770;9.154;2023-06-14T12:08:34;24.40;50.00
2024;DHT22;1016;48.770;9.154;2023-06-14T12:11:13;24.40;50.10
2024;DHT22;1016;48.770;9.154;2023-06-14T12:13:40;24.40;49.40
2024;DHT22;1016;48.770;9.154;2023-06-14T12:16:11;24.30;49.60
2024;DHT22;1016;48.770;9.154;2023-06-14T12:18:38;24.30;49.50
2024;DHT22;1016;48.770;9.154;2023-06-14T12:21:05;24.30;49.70
2024;DHT22;1016;48.770;9.154;2023-06-14T12:23:48;24.40;49.30
2024;DHT22;1016;48.770;9.154;2023-06-14T12:26:17;24.40;49.40
2024;DHT22;1016;48.770;9.154;2023-06-14T12:28:47;24.50;49.10
2024;DHT22;1016;48.770;9.154;2023-06-14T12:31:14;24.50;48.80
2024;DHT22;1016;48.770;9.154;2023-06-14T12:33:41;24.50;48.80
2024;DHT22;1016;48.770;9.154;2023-06-14T12:36:10;24.50;48.70
2024;DHT22;1016;48.770;9.154;2023-06-14T12:38:37;24.60;49.20
2024;DHT22;1016;48.770;9.154;2023-06-14T12:41:03;24.80;49.50
2024;DHT22;1016;48.770;9.154;2023-06-14T12:43:29;24.70;49.30
2024;DHT22;1016;48.770;9.154;2023-06-14T12:45:54;24.70;49.40
2024;DHT22;1016;48.770;9.154;2023-06-14T12:48:20;24.70;49.80
2024;DHT22;1016;48.770;9.154;2023-06-14T12:50:47;24.70;49.60
2024;DHT22;1016;48.770;9.154;2023-06-14T12:53:12;24.70;49.50
2024;DHT22;1016;48.770;9.154;2023-06-14T12:55:38;24.80;49.30
2024;DHT22;1016;48.770;9.154;2023-06-14T12:58:04;24.80;49.20
2024;DHT22;1016;48.770;9.154;2023-06-14T13:00:29;25.00;49.60
2024;DHT22;1016;48.770;9.154;2023-06-14T13:02:56;24.90;49.60
2024;DHT22;1016;48.770;9.154;2023-06-14T13:05:22;25.10;49.80
2024;DHT22;1016;48.770;9.154;2023-06-14T13:07:47;25.00;49.90
2024;DHT22;1016;48.770;9.154;2023-06-14T13:10:13;25.20;49.40
2024;DHT22;1016;48.770;9.154;2023-06-14T13:12:39;25.20;48.90
2024;DHT22;1016;48.770;9.154;2023-06-14T13:15:05;25.10;49.60
2024;DHT22;1016;48.770;9.154;2023-06-14T13:17:32;25.00;49.30
2024;DHT22;1016;48.770;9.154;2023-06-14T13:19:58;25.10;49.20
2024;DHT22;1016;48.770;9.154;2023-06-14T13:22:24;25.10;49.20
2024;DHT22;1016;48.770;9.154;2023-06-14T13:24:50;25.10;49.60
2024;DHT22;1016;48.770;9.154;2023-06-14T13:27:15;25.10;48.70
2024;DHT22;1016;48.770;9.154;2023-06-14T13:29:41;25.10;48.10
2024;DHT22;1016;48.770;9.154;2023-06-14T13:32:07;25.20;48.30
2024;DHT22;1016;48.770;9.154;2023-06-14T13:34:32;25.40;48.00
2024;DHT22;1016;48.770;9.154;2023-06-14T13:36:58;25.50;49.00
2024;DHT22;1016;48.770;9.154;2023-06-14T13:39:26;25.70;48.80
2024;DHT22;1016;48.770;9.154;2023-06-14T13:41:52;26.00;48.20
2024;DHT22;1016;48.770;9.154;2023-06-14T13:44:18;26.30;48.00
2024;DHT22;1016;48.770;9.154;2023-06-14T13:46:46;26.50;46.90
2024;DHT22;1016;48.770;9.154;2023-06-14T13:49:12;26.80;47.10
2024;DHT22;1016;48.770;9.154;2023-06-14T13:51:38;28.00;47.00
2024;DHT22;1016;48.770;9.154;2023-06-14T13:54:04;29.30;46.00
2024;DHT22;1016;48.770;9.154;2023-06-14T13:56:30;30.10;46.70
2024;DHT22;1016;48.770;9.154;2023-06-14T13:58:56;32.90;44.40
2024;DHT22;1016;48.770;9.154;2023-06-14T14:01:21;35.70;43.50
2024;DHT22;1016;48.770;9.154;2023-06-14T14:03:48;37.10;40.60
2024;DHT22;1016;48.770;9.154;2023-06-14T14:08:41;39.70;37.40
2024;DHT22;1016;48.770;9.154;2023-06-14T14:11:07;41.20;36.50
2024;DHT22;1016;48.770;9.154;2023-06-14T14:13:33;42.10;34.40
2024;DHT22;1016;48.770;9.154;2023-06-14T14:16:01;42.10;33.00
2024;DHT22;1016;48.770;9.154;2023-06-14T14:20:52;43.00;30.80
2024;DHT22;1016;48.770;9.154;2023-06-14T14:23:18;42.80;31.00
2024;DHT22;1016;48.770;9.154;2023-06-14T14:25:45;41.70;31.20
2024;DHT22;1016;48.770;9.154;2023-06-14T14:28:10;41.30;30.80
2024;DHT22;1016;48.770;9.154;2023-06-14T14:30:36;39.50;30.40
2024;DHT22;1016;48.770;9.154;2023-06-14T14:33:05;37.50;31.20
2024;DHT22;1016;48.770;9.154;2023-06-14T14:35:30;35.80;32.30
2024;DHT22;1016;48.770;9.154;2023-06-14T14:37:56;34.20;33.70
2024;DHT22;1016;48.770;9.154;2023-06-14T14:40:22;33.10;34.60
2024;DHT22;1016;48.770;9.154;2023-06-14T14:42:47;32.20;35.80
2024;DHT22;1016;48.770;9.154;2023-06-14T14:45:13;31.30;36.70
2024;DHT22;1016;48.770;9.154;2023-06-14T14:47:38;30.60;36.90
2024;DHT22;1016;48.770;9.154;2023-06-14T14:50:04;30.00;38.20
2024;DHT22;1016;48.770;9.154;2023-06-14T14:52:34;29.40;38.90
2024;DHT22;1016;48.770;9.154;2023-06-14T14:54:59;28.90;39.80
2024;DHT22;1016;48.770;9.154;2023-06-14T14:57:26;28.60;39.80
2024;DHT22;1016;48.770;9.154;2023-06-14T14:59:52;28.30;40.30
2024;DHT22;1016;48.770;9.154;2023-06-14T15:02:17;28.10;40.50
2024;DHT22;1016;48.770;9.154;2023-06-14T15:04:43;27.90;40.80
2024;DHT22;1016;48.770;9.154;2023-06-14T15:07:08;27.70;41.00
2024;DHT22;1016;48.770;9.154;2023-06-14T15:09:34;27.50;41.90
2024;DHT22;1016;48.770;9.154;2023-06-14T15:12:00;27.30;41.40
2024;DHT22;1016;48.770;9.154;2023-06-14T15:14:25;27.20;42.00
2024;DHT22;1016;48.770;9.154;2023-06-14T15:16:51;27.00;41.70
2024;DHT22;1016;48.770;9.154;2023-06-14T15:19:18;26.90;42.40
2024;DHT22;1016;48.770;9.154;2023-06-14T15:21:43;26.90;42.10
2024;DHT22;1016;48.770;9.154;2023-06-14T15:24:09;26.70;42.50
2024;DHT22;1016;48.770;9.154;2023-06-14T15:26:34;26.70;43.50
2024;DHT22;1016;48.770;9.154;2023-06-14T15:29:00;26.70;43.90
2024;DHT22;1016;48.770;9.154;2023-06-14T15:31:25;26.50;44.10
2024;DHT22;1016;48.770;9.154;2023-06-14T15:33:53;26.40;44.40
2024;DHT22;1016;48.770;9.154;2023-06-14T15:36:18;26.40;44.60
2024;DHT22;1016;48.770;9.154;2023-06-14T15:38:44;26.20;44.40
2024;DHT22;1016;48.770;9.154;2023-06-14T15:41:10;26.10;44.60
2024;DHT22;1016;48.770;9.154;2023-06-14T15:43:35;26.00;45.00
2024;DHT22;1016;48.770;9.154;2023-06-14T15:46:01;25.90;44.50
2024;DHT22;1016;48.770;9.154;2023-06-14T15:48:26;25.90;44.80
2024;DHT22;1016;48.770;9.154;2023-06-14T15:50:52;25.80;44.50
2024;DHT22;1016;48.770;9.154;2023-06-14T15:53:18;25.70;44.60
2024;DHT22;1016;48.770;9.154;2023-06-14T15:55:44;25.60;45.30
2024;DHT22;1016;48.770;9.154;2023-06-14T15:58:10;25.60;45.40
2024;DHT22;1016;48.770;9.154;2023-06-14T16:00:36;25.50;45.60
2024;DHT22;1016;48.770;9.154;2023-06-14T16:03:01;25.40;46.10
2024;DHT22;1016;48.770;9.154;2023-06-14T16:05:27;25.40;45.90
2024;DHT22;1016;48.770;9.154;2023-06-14T16:07:52;25.40;46.10
2024;DHT22;1016;48.770;9.154;2023-06-14T16:10:18;25.30;46.10
2024;DHT22;1016;48.770;9.154;2023-06-14T16:12:43;25.30;46.30
2024;DHT22;1016;48.770;9.154;2023-06-14T16:15:09;25.30;46.20
2024;DHT22;1016;48.770;9.154;2023-06-14T16:17:35;25.20;46.20
2024;DHT22;1016;48.770;9.154;2023-06-14T16:20:00;25.20;46.30
2024;DHT22;1016;48.770;9.154;2023-06-14T16:22:26;25.20;46.30
2024;DHT22;1016;48.770;9.154;2023-06-14T16:24:52;25.30;46.20
2024;DHT22;1016;48.770;9.154;2023-06-14T16:27:17;25.20;45.90
2024;DHT22;1016;48.770;9.154;2023-06-14T16:29:43;25.10;46.00
2024;DHT22;1016;48.770;9.154;2023-06-14T16:32:08;25.10;46.10
2024;DHT22;1016;48.770;9.154;2023-06-14T16:34:34;25.00;46.10
2024;DHT22;1016;48.770;9.154;2023-06-14T16:37:01;25.00;46.30
2024;DHT22;1016;48.770;9.154;2023-06-14T16:39:26;25.10;46.20
2024;DHT22;1016;48.770;9.154;2023-06-14T16:41:52;25.00;46.20
2024;DHT22;1016;48.770;9.154;2023-06-14T16:44:17;25.00;46.40
2024;DHT22;1016;48.770;9.154;2023-06-14T16:46:44;25.00;46.40
2024;DHT22;1016;48.770;9.154;2023-06-14T16:49:09;24.90;46.60
2024;DHT22;1016;48.770;9.154;2023-06-14T16:51:35;24.90;46.80
2024;DHT22;1016;48.770;9.154;2023-06-14T16:54:00;25.00;47.10
2024;DHT22;1016;48.770;9.154;2023-06-14T16:56:26;25.00;47.40